Time;durP1;ratioP1;P1;durP2;ratioP2;P2;SDS_P1;SDS_P2;PMS_P1;PMS_P2;Temp;Humidity;BMP_temperature;BMP_pressure;BME280_temperature;BME280_humidity;BME280_pressure;Samples;Min_cycle;Max_cycle;Signal;HPM_P1;HPM_P2
2023/12/07 00:02:12;;;;;;;14.07;11.27;;;4.10;99.90;;;;;;5083171;28;20196;-78
2023/12/07 00:04:37;;;;;;;14.45;11.40;;;4.10;99.90;;;;;;5086821;28;20263;-78
2023/12/07 00:07:03;;;;;;;15.47;10.33;;;4.20;99.90;;;;;;5093184;28;20613;-78
2023/12/07 00:09:29;;;;;;;14.07;10.87;;;4.10;99.90;;;;;;5074924;28;20175;-79
2023/12/07 00:11:55;;;;;;;13.13;10.67;;;4.20;99.90;;;;;;5093288;28;21194;-79
2023/12/07 00:14:20;;;;;;;13.93;10.60;;;4.10;99.90;;;;;;5074571;28;20291;-78
2023/12/07 00:16:46;;;;;;;13.50;10.13;;;4.10;99.90;;;;;;5075043;28;20214;-78
2023/12/07 00:19:11;;;;;;;17.23;11.17;;;4.10;99.90;;;;;;5092881;28;20168;-78
2023/12/07 00:21:37;;;;;;;13.80;11.23;;;4.10;99.90;;;;;;5074572;28;20207;-78
2023/12/07 00:24:03;;;;;;;13.87;10.43;;;4.10;99.90;;;;;;5093078;28;20183;-78
2023/12/07 00:26:29;;;;;;;13.05;11.00;;;4.10;99.90;;;;;;5074629;28;20187;-78
2023/12/07 00:28:55;;;;;;;14.10;11.57;;;4.10;99.90;;;;;;5074570;28;20220;-79
2023/12/07 00:31:20;;;;;;;13.10;10.80;;;4.10;99.90;;;;;;5074316;28;20332;-78
2023/12/07 00:33:46;;;;;;;13.53;10.40;;;4.10;99.90;;;;;;5057823;28;20648;-78
2023/12/07 00:36:12;;;;;;;15.43;10.87;;;4.10;99.90;;;;;;5074059;28;20199;-78
2023/12/07 00:38:38;;;;;;;13.52;10.13;;;4.00;99.90;;;;;;5074115;28;20168;-78
2023/12/07 00:41:04;;;;;;;11.07;9.60;;;4.00;99.90;;;;;;5092403;28;20190;-78
2023/12/07 00:43:29;;;;;;;12.57;10.20;;;4.00;99.90;;;;;;5074387;28;20164;-78
2023/12/07 00:45:55;;;;;;;12.50;10.87;;;4.00;99.90;;;;;;5092161;28;20578;-78
2023/12/07 00:48:21;;;;;;;13.40;10.93;;;3.90;99.90;;;;;;5074223;28;20171;-78
2023/12/07 00:50:47;;;;;;;14.60;11.50;;;3.90;99.90;;;;;;5091566;28;20260;-78
2023/12/07 00:53:13;;;;;;;13.68;10.82;;;3.90;99.90;;;;;;5092202;28;20167;-78
2023/12/07 00:55:40;;;;;;;13.07;11.50;;;3.90;99.90;;;;;;5091807;28;20286;-78
2023/12/07 00:58:05;;;;;;;16.65;12.90;;;3.90;99.90;;;;;;5073962;28;20699;-78
2023/12/07 01:00:31;;;;;;;14.53;11.17;;;3.90;99.90;;;;;;5057297;28;20674;-78
2023/12/07 01:02:57;;;;;;;15.20;11.73;;;3.90;99.90;;;;;;5092252;28;20574;-78
2023/12/07 01:05:22;;;;;;;13.07;10.97;;;3.90;99.90;;;;;;5073592;28;20183;-78
2023/12/07 01:07:48;;;;;;;13.93;10.37;;;3.90;99.90;;;;;;5091865;28;20195;-78
2023/12/07 01:10:14;;;;;;;11.70;10.30;;;3.90;99.90;;;;;;5073625;28;20590;-78
2023/12/07 01:12:39;;;;;;;13.13;10.83;;;3.90;99.90;;;;;;5073729;28;20202;-78
2023/12/07 01:15:06;;;;;;;17.43;11.73;;;3.90;99.90;;;;;;5073448;28;20541;-78
2023/12/07 01:17:32;;;;;;;15.98;12.10;;;3.90;99.90;;;;;;5073764;28;20550;-78
2023/12/07 01:19:57;;;;;;;14.77;12.03;;;3.90;99.90;;;;;;5091770;28;20168;-78
2023/12/07 01:22:23;;;;;;;17.20;13.00;;;3.90;99.90;;;;;;5040883;28;20608;-78
2023/12/07 01:24:49;;;;;;;14.17;10.57;;;3.90;99.90;;;;;;4969949;28;20174;-77
2023/12/07 01:27:14;;;;;;;17.43;11.40;;;3.90;99.90;;;;;;5035836;28;20174;-77
2023/12/07 01:29:40;;;;;;;14.50;11.20;;;3.80;99.90;;;;;;4958140;28;20194;-77
2023/12/07 01:32:06;;;;;;;14.30;10.93;;;3.80;99.90;;;;;;4970863;28;20218;-77
2023/12/07 01:34:32;;;;;;;16.73;12.00;;;3.80;99.90;;;;;;5047009;28;20183;-77
2023/12/07 01:36:58;;;;;;;15.68;11.98;;;3.80;99.90;;;;;;4961923;28;20673;-77
2023/12/07 01:39:24;;;;;;;14.37;11.33;;;3.80;99.90;;;;;;5036194;28;20199;-77
2023/12/07 01:41:51;;;;;;;15.83;12.50;;;3.80;99.90;;;;;;4968468;28;20192;-77
2023/12/07 01:44:17;;;;;;;18.95;14.60;;;3.80;99.90;;;;;;5020516;28;20242;-77
2023/12/07 01:46:42;;;;;;;19.67;14.37;;;3.80;99.90;;;;;;5019153;28;20196;-77
2023/12/07 01:49:09;;;;;;;21.30;13.97;;;3.80;99.90;;;;;;4957446;28;20180;-77
2023/12/07 01:51:35;;;;;;;15.88;13.23;;;3.80;99.90;;;;;;5031729;28;20572;-77
2023/12/07 01:54:01;;;;;;;19.08;12.40;;;3.80;99.90;;;;;;5027221;28;20172;-76
2023/12/07 01:56:27;;;;;;;20.33;13.60;;;3.80;99.90;;;;;;5020840;28;20212;-77
2023/12/07 01:58:53;;;;;;;16.50;12.57;;;3.80;99.90;;;;;;5031284;28;20221;-77
2023/12/07 02:01:19;;;;;;;18.27;13.60;;;3.80;99.90;;;;;;4960335;28;20195;-77
2023/12/07 02:03:45;;;;;;;17.40;12.70;;;3.80;99.90;;;;;;4962747;28;20199;-77
2023/12/07 02:06:10;;;;;;;16.77;12.70;;;3.80;99.90;;;;;;5035991;28;20187;-77
2023/12/07 02:08:41;;;;;;;15.93;11.63;;;3.80;99.90;;;;;;4964820;28;20538;-77
2023/12/07 02:11:25;;;;;;;24.67;12.70;;;3.80;99.90;;;;;;4994848;28;20223;-77
2023/12/07 02:13:55;;;;;;;16.08;12.68;;;3.80;99.90;;;;;;5035617;28;20300;-77
2023/12/07 02:16:32;;;;;;;15.27;12.18;;;3.80;99.90;;;;;;5035729;28;20608;-77
2023/12/07 02:19:34;;;;;;;17.88;13.60;;;3.80;99.90;;;;;;5019095;28;20213;-77
2023/12/07 02:22:06;;;;;;;18.85;12.85;;;3.90;99.90;;;;;;5009012;28;20214;-77
2023/12/07 02:24:35;;;;;;;17.15;11.95;;;3.90;99.90;;;;;;5027535;28;20209;-77
2023/12/07 02:27:01;;;;;;;16.92;13.07;;;3.90;99.90;;;;;;5052291;28;20180;-77
2023/12/07 02:29:27;;;;;;;15.40;11.43;;;4.00;99.90;;;;;;5010791;28;20674;-78
2023/12/07 02:31:53;;;;;;;16.30;12.13;;;4.00;99.90;;;;;;5035528;28;20676;-78
2023/12/07 02:34:19;;;;;;;17.15;12.63;;;4.00;99.90;;;;;;5042338;28;20217;-78
2023/12/07 02:36:47;;;;;;;17.90;13.27;;;4.00;99.90;;;;;;5004842;28;20196;-78
2023/12/07 02:39:14;;;;;;;15.25;12.63;;;4.00;99.90;;;;;;5038644;28;20678;-78
2023/12/07 02:41:41;;;;;;;18.33;13.52;;;4.00;99.90;;;;;;5028285;28;20203;-78
2023/12/07 02:44:07;;;;;;;15.13;11.80;;;4.00;99.90;;;;;;5035495;28;20267;-78
2023/12/07 02:46:33;;;;;;;16.23;12.23;;;4.10;99.90;;;;;;4960978;28;20271;-78
2023/12/07 02:48:59;;;;;;;20.40;13.57;;;4.10;99.90;;;;;;5035293;28;20287;-77
2023/12/07 02:51:24;;;;;;;14.10;11.30;;;4.10;99.90;;;;;;5035603;28;20627;-77
2023/12/07 02:53:50;;;;;;;15.73;12.23;;;4.10;99.90;;;;;;5035177;28;20270;-77
2023/12/07 02:56:16;;;;;;;19.97;14.43;;;4.10;99.90;;;;;;5035597;28;20200;-78
2023/12/07 02:58:42;;;;;;;18.03;13.10;;;4.20;99.90;;;;;;5035356;28;20280;-78
2023/12/07 03:01:08;;;;;;;16.70;12.97;;;4.20;99.90;;;;;;5035693;28;20231;-78
2023/12/07 03:03:33;;;;;;;16.95;13.10;;;4.20;99.90;;;;;;5010588;28;20176;-78
2023/12/07 03:05:59;;;;;;;17.17;12.53;;;4.20;99.90;;;;;;5035342;28;20738;-78
2023/12/07 03:08:25;;;;;;;19.27;12.63;;;4.30;99.90;;;;;;5018849;28;20176;-77
2023/12/07 03:10:50;;;;;;;15.60;10.93;;;4.30;99.90;;;;;;5021831;28;20204;-77
2023/12/07 03:13:16;;;;;;;15.97;12.20;;;4.30;99.90;;;;;;5016785;28;20183;-77
2023/12/07 03:15:42;;;;;;;24.93;15.60;;;4.30;99.90;;;;;;4985954;28;20275;-77
2023/12/07 03:18:08;;;;;;;19.37;13.93;;;4.40;99.90;;;;;;5047672;28;20179;-77
2023/12/07 03:20:34;;;;;;;14.73;11.87;;;4.40;99.90;;;;;;5061401;28;20614;-77
2023/12/07 03:22:59;;;;;;;17.10;13.20;;;4.50;99.90;;;;;;5071850;28;20591;-78
2023/12/07 03:25:25;;;;;;;18.60;12.60;;;4.50;99.90;;;;;;5075609;28;20936;-77
2023/12/07 03:27:51;;;;;;;16.93;12.80;;;4.60;99.90;;;;;;5093744;28;20222;-77
2023/12/07 03:30:16;;;;;;;19.00;13.30;;;4.60;99.90;;;;;;5086241;28;20587;-77
2023/12/07 03:32:43;;;;;;;17.30;14.48;;;4.70;99.90;;;;;;5085962;28;20191;-77
2023/12/07 03:35:09;;;;;;;18.17;13.50;;;4.70;99.90;;;;;;5050572;28;20178;-76
2023/12/07 03:37:34;;;;;;;15.90;13.23;;;4.80;99.90;;;;;;5109445;28;20570;-77
2023/12/07 03:40:00;;;;;;;18.13;13.07;;;4.80;99.90;;;;;;5043664;28;20759;-77
2023/12/07 03:42:26;;;;;;;16.50;13.23;;;4.90;99.90;;;;;;5074184;28;20671;-76
2023/12/07 03:44:52;;;;;;;16.77;12.40;;;4.90;99.90;;;;;;5092178;28;20179;-77
2023/12/07 03:47:18;;;;;;;13.90;12.10;;;5.00;99.90;;;;;;5083895;28;20182;-77
2023/12/07 03:49:44;;;;;;;21.83;13.73;;;5.00;99.90;;;;;;5075359;28;20172;-77
2023/12/07 03:55:57;;;;;;;19.08;12.18;;;5.00;99.90;;;;;;5069851;28;20203;-77
2023/12/07 03:58:22;;;;;;;16.97;11.60;;;5.10;99.90;;;;;;5075174;28;20597;-77
2023/12/07 04:00:48;;;;;;;14.50;11.73;;;5.10;99.90;;;;;;5092069;28;20190;-77
2023/12/07 04:03:14;;;;;;;12.97;10.70;;;5.10;99.90;;;;;;5092947;28;20159;-77
2023/12/07 04:05:40;;;;;;;11.80;9.93;;;5.10;99.90;;;;;;5093372;28;20175;-77
2023/12/07 04:08:05;;;;;;;13.43;11.17;;;5.10;99.90;;;;;;5074856;28;20172;-77
2023/12/07 04:10:31;;;;;;;12.40;10.63;;;5.20;99.90;;;;;;5108753;28;20597;-77
2023/12/07 04:12:57;;;;;;;16.30;11.00;;;5.20;99.90;;;;;;5074853;28;20553;-77
2023/12/07 04:15:23;;;;;;;14.07;11.50;;;5.20;99.90;;;;;;5073341;28;20202;-77
2023/12/07 04:17:49;;;;;;;13.03;9.40;;;5.20;99.90;;;;;;5061411;28;20200;-76
2023/12/07 04:20:15;;;;;;;11.60;10.20;;;5.30;99.90;;;;;;5084649;28;20658;-77
2023/12/07 04:22:41;;;;;;;11.90;10.37;;;5.30;99.90;;;;;;5074660;28;20617;-77
2023/12/07 04:25:07;;;;;;;14.50;10.90;;;5.30;99.90;;;;;;5092127;28;21379;-77
2023/12/07 04:27:34;;;;;;;11.68;9.60;;;5.30;99.90;;;;;;5090040;28;20906;-76
2023/12/07 04:29:59;;;;;;;14.50;11.75;;;5.30;99.90;;;;;;5062822;28;20269;-77
2023/12/07 04:32:25;;;;;;;11.60;9.87;;;5.20;99.90;;;;;;5064276;28;20231;-77
2023/12/07 04:34:52;;;;;;;12.57;9.73;;;5.20;99.90;;;;;;5092826;28;20191;-77
2023/12/07 04:37:18;;;;;;;13.65;9.88;;;5.10;99.90;;;;;;5091301;28;20671;-77
2023/12/07 04:39:43;;;;;;;10.60;9.10;;;5.10;99.90;;;;;;5083905;28;20160;-77
2023/12/07 04:42:09;;;;;;;9.90;8.40;;;5.00;99.90;;;;;;5066043;28;20187;-77
2023/12/07 04:44:35;;;;;;;12.03;9.37;;;5.00;99.90;;;;;;5057760;28;20171;-77
2023/12/07 04:47:00;;;;;;;10.93;9.40;;;5.00;99.90;;;;;;5092495;28;20711;-77
2023/12/07 04:49:27;;;;;;;12.50;8.87;;;5.10;99.90;;;;;;5083787;28;20187;-77
2023/12/07 04:51:52;;;;;;;11.23;8.85;;;5.10;99.90;;;;;;5078355;28;20196;-77
2023/12/07 04:54:19;;;;;;;10.00;7.87;;;5.10;99.90;;;;;;5089015;28;20640;-78
2023/12/07 04:56:45;;;;;;;10.25;9.25;;;5.20;99.90;;;;;;5058353;28;20199;-78
2023/12/07 04:59:10;;;;;;;10.93;8.30;;;5.20;99.90;;;;;;5066282;28;20678;-77
2023/12/07 05:01:36;;;;;;;10.73;8.23;;;5.30;99.90;;;;;;5056659;28;20602;-78
2023/12/07 05:04:03;;;;;;;9.73;8.73;;;5.30;99.90;;;;;;5065836;28;20221;-77
2023/12/07 05:06:32;;;;;;;11.82;8.00;;;5.30;99.90;;;;;;5063829;28;20266;-77
2023/12/07 05:08:58;;;;;;;10.25;7.88;;;5.30;99.90;;;;;;5086170;28;20172;-78
2023/12/07 05:11:24;;;;;;;10.10;9.10;;;5.40;99.90;;;;;;5107240;28;20222;-78
2023/12/07 05:13:50;;;;;;;10.13;9.13;;;5.40;99.90;;;;;;5092374;28;20577;-78
2023/12/07 05:16:16;;;;;;;9.47;8.40;;;5.40;99.90;;;;;;5077421;28;20199;-77
2023/12/07 05:18:41;;;;;;;11.45;8.88;;;5.40;99.90;;;;;;5074155;28;20201;-78
2023/12/07 05:21:07;;;;;;;9.20;7.77;;;5.40;99.90;;;;;;5056975;28;20291;-77
2023/12/07 05:23:33;;;;;;;9.73;7.77;;;5.40;99.90;;;;;;5057218;28;20236;-77
2023/12/07 05:25:59;;;;;;;10.23;9.05;;;5.40;99.90;;;;;;5073949;28;20824;-77
2023/12/07 05:28:26;;;;;;;8.73;7.75;;;5.50;99.90;;;;;;5090387;28;20179;-77
2023/12/07 05:30:52;;;;;;;9.77;7.30;;;5.50;99.90;;;;;;5066717;28;20214;-77
2023/12/07 05:33:21;;;;;;;9.57;8.50;;;5.50;99.90;;;;;;5091608;28;20171;-77
2023/12/07 05:35:47;;;;;;;8.57;7.68;;;5.50;99.90;;;;;;5069532;28;20777;-77
2023/12/07 05:38:13;;;;;;;8.82;7.45;;;5.50;99.90;;;;;;5069509;28;20232;-77
2023/12/07 05:40:39;;;;;;;9.30;7.20;;;5.50;99.90;;;;;;5048131;28;20183;-77
2023/12/07 05:43:05;;;;;;;9.10;7.77;;;5.50;99.90;;;;;;5066197;28;20662;-77
2023/12/07 05:45:30;;;;;;;8.47;7.17;;;5.50;99.90;;;;;;5081606;28;20191;-78
2023/12/07 05:47:56;;;;;;;10.40;7.93;;;5.40;99.90;;;;;;5077605;28;20176;-77
2023/12/07 05:50:22;;;;;;;7.80;6.18;;;5.30;99.90;;;;;;5053112;28;20530;-78
2023/12/07 05:52:48;;;;;;;9.87;7.63;;;5.30;99.90;;;;;;5053021;28;20188;-77
2023/12/07 05:55:14;;;;;;;14.27;8.97;;;5.20;99.90;;;;;;5053031;28;20183;-77
2023/12/07 05:57:40;;;;;;;8.60;7.77;;;5.20;99.90;;;;;;5053033;28;20645;-77
2023/12/07 06:00:10;;;;;;;10.05;9.00;;;5.20;99.90;;;;;;5053106;28;20210;-77
2023/12/07 06:02:39;;;;;;;9.68;8.38;;;5.10;99.90;;;;;;5070662;28;20196;-77
2023/12/07 06:05:05;;;;;;;12.00;8.30;;;5.10;99.90;;;;;;5052984;28;20164;-77
2023/12/07 06:07:31;;;;;;;11.02;8.15;;;5.10;99.90;;;;;;5071005;28;20164;-78
2023/12/07 06:09:56;;;;;;;9.50;7.93;;;5.10;99.90;;;;;;5052746;28;20267;-77
2023/12/07 06:12:25;;;;;;;10.93;8.37;;;5.10;99.90;;;;;;5070461;28;20666;-77
2023/12/07 06:14:51;;;;;;;10.57;9.30;;;5.10;99.90;;;;;;5071111;28;20595;-77
2023/12/07 06:17:17;;;;;;;9.10;7.30;;;5.00;99.90;;;;;;5060902;28;20203;-77
2023/12/07 06:19:42;;;;;;;11.40;8.80;;;5.00;99.90;;;;;;5090782;28;20660;-77
2023/12/07 06:22:08;;;;;;;10.67;8.67;;;4.90;99.90;;;;;;5090295;28;20206;-77
2023/12/07 06:24:35;;;;;;;12.02;10.73;;;4.90;99.90;;;;;;5090894;28;20178;-77
2023/12/07 06:27:02;;;;;;;15.18;10.00;;;4.80;99.90;;;;;;5072607;28;20538;-77
2023/12/07 06:29:29;;;;;;;10.70;8.65;;;4.70;99.90;;;;;;5072653;28;20183;-77
2023/12/07 06:31:55;;;;;;;13.40;8.77;;;4.60;99.90;;;;;;5072381;28;20213;-78
2023/12/07 06:34:21;;;;;;;12.45;9.63;;;4.60;99.90;;;;;;5072675;28;20192;-78
2023/12/07 06:36:47;;;;;;;8.83;7.87;;;4.50;99.90;;;;;;5072634;28;20211;-77
2023/12/07 06:39:14;;;;;;;9.75;7.55;;;4.50;99.90;;;;;;5072320;28;20591;-77
2023/12/07 06:41:40;;;;;;;8.95;7.88;;;4.40;99.90;;;;;;5055230;28;20206;-78
2023/12/07 06:44:06;;;;;;;14.33;9.27;;;4.40;99.90;;;;;;5082648;28;20175;-78
2023/12/07 06:46:32;;;;;;;11.25;8.30;;;4.40;99.90;;;;;;5072456;28;20207;-77
2023/12/07 06:48:58;;;;;;;11.90;9.00;;;4.30;99.90;;;;;;5057419;28;20648;-77
2023/12/07 06:51:23;;;;;;;14.00;10.10;;;4.30;99.90;;;;;;5075952;28;20195;-77
2023/12/07 06:53:49;;;;;;;15.93;9.73;;;4.30;99.90;;;;;;5068648;28;20195;-77
2023/12/07 06:56:15;;;;;;;11.47;9.20;;;4.20;99.90;;;;;;5068949;28;20684;-77
2023/12/07 06:58:41;;;;;;;13.70;9.50;;;4.20;99.90;;;;;;5074262;28;21128;-77
2023/12/07 07:01:06;;;;;;;10.30;9.03;;;4.10;99.90;;;;;;5074244;28;21233;-77
2023/12/07 07:03:32;;;;;;;12.30;9.47;;;4.10;99.90;;;;;;5082582;28;20635;-77
2023/12/07 07:05:59;;;;;;;10.60;8.77;;;4.10;99.90;;;;;;5070088;28;20202;-77
2023/12/07 07:08:25;;;;;;;10.30;8.30;;;4.10;99.90;;;;;;5076114;28;20553;-77
2023/12/07 07:10:51;;;;;;;14.50;9.30;;;4.00;99.90;;;;;;5076318;28;20196;-78
2023/12/07 07:13:19;;;;;;;14.20;9.80;;;4.00;99.90;;;;;;5078100;28;20173;-78
2023/12/07 07:15:44;;;;;;;14.30;8.40;;;4.00;99.90;;;;;;5055953;28;20277;-78
2023/12/07 07:18:10;;;;;;;10.63;7.73;;;4.00;99.90;;;;;;5073947;28;20215;-77
2023/12/07 07:20:36;;;;;;;13.87;10.43;;;3.90;99.90;;;;;;5050505;28;20289;-77
2023/12/07 07:23:02;;;;;;;16.07;11.03;;;3.90;99.90;;;;;;5041486;28;20614;-77
2023/12/07 07:25:27;;;;;;;11.40;8.93;;;3.90;99.90;;;;;;5039135;28;20637;-77
2023/12/07 07:27:54;;;;;;;12.30;9.90;;;3.90;99.90;;;;;;4991303;28;20180;-77
2023/12/07 07:30:20;;;;;;;13.02;10.40;;;3.90;99.90;;;;;;4991031;28;20183;-77
2023/12/07 07:32:47;;;;;;;14.60;11.95;;;3.80;99.90;;;;;;4987206;28;20199;-76
2023/12/07 07:35:13;;;;;;;14.40;10.20;;;3.80;99.90;;;;;;5051255;28;20184;-76
2023/12/07 07:37:41;;;;;;;14.60;11.10;;;3.80;99.90;;;;;;5046243;28;20191;-76
2023/12/07 07:40:11;;;;;;;16.13;11.27;;;3.80;99.90;;;;;;4991080;28;20171;-77
2023/12/07 07:42:40;;;;;;;14.88;9.88;;;3.70;99.90;;;;;;5045121;28;20260;-76
2023/12/07 07:45:07;;;;;;;13.90;11.10;;;3.70;99.90;;;;;;5016207;28;20214;-77
2023/12/07 07:47:33;;;;;;;15.38;12.82;;;3.70;99.90;;;;;;5031561;28;20171;-76
2023/12/07 07:50:03;;;;;;;12.83;10.67;;;3.70;99.90;;;;;;5073032;28;20179;-77
2023/12/07 07:52:29;;;;;;;15.52;11.50;;;3.70;99.90;;;;;;5054910;28;21198;-77
2023/12/07 07:54:55;;;;;;;16.27;12.53;;;3.70;99.90;;;;;;4990833;28;20171;-76
2023/12/07 07:57:23;;;;;;;14.80;11.70;;;3.70;99.90;;;;;;5022173;28;20204;-76
2023/12/07 07:59:49;;;;;;;12.38;9.70;;;3.70;99.90;;;;;;5070215;28;20172;-80
2023/12/07 08:02:15;;;;;;;12.93;9.83;;;3.70;99.90;;;;;;5002826;28;20333;-81
2023/12/07 08:04:40;;;;;;;14.73;12.20;;;3.80;99.90;;;;;;4990073;28;20597;-80
2023/12/07 08:07:07;;;;;;;11.60;9.47;;;3.70;99.90;;;;;;5052042;28;20559;-80
2023/12/07 08:09:33;;;;;;;15.18;10.98;;;3.70;99.90;;;;;;4982488;28;20191;-80
2023/12/07 08:11:59;;;;;;;13.80;11.10;;;3.80;99.90;;;;;;5024554;28;20206;-80
2023/12/07 08:14:24;;;;;;;19.53;11.87;;;3.70;99.90;;;;;;4996125;28;20641;-77
2023/12/07 08:16:50;;;;;;;18.13;11.80;;;3.70;99.90;;;;;;5013966;28;20715;-78
2023/12/07 08:19:16;;;;;;;15.90;11.80;;;3.70;99.90;;;;;;5059982;28;20663;-77
2023/12/07 08:21:41;;;;;;;16.47;11.13;;;3.70;99.90;;;;;;5045133;28;20302;-78
2023/12/07 08:24:07;;;;;;;17.57;12.77;;;3.70;99.90;;;;;;5075569;28;20176;-77
2023/12/07 08:26:33;;;;;;;16.07;12.13;;;3.70;99.90;;;;;;5071706;28;20187;-77
2023/12/07 08:28:59;;;;;;;16.70;12.80;;;3.70;99.90;;;;;;5042731;28;21229;-77
2023/12/07 08:31:24;;;;;;;23.60;14.97;;;3.70;99.90;;;;;;5049876;28;20230;-77
2023/12/07 08:33:51;;;;;;;17.63;11.73;;;3.70;99.90;;;;;;5092753;28;20176;-77
2023/12/07 08:36:16;;;;;;;17.30;13.32;;;3.70;99.90;;;;;;5098971;28;20647;-77
2023/12/07 08:38:42;;;;;;;16.10;12.23;;;3.70;99.90;;;;;;5041321;28;20204;-77
2023/12/07 08:41:08;;;;;;;14.93;11.90;;;3.70;99.90;;;;;;5086870;28;20279;-78
2023/12/07 08:43:34;;;;;;;13.80;10.40;;;3.70;99.90;;;;;;5090699;28;20574;-78
2023/12/07 08:46:00;;;;;;;18.07;9.50;;;3.80;99.90;;;;;;5087305;28;20184;-78
2023/12/07 08:48:25;;;;;;;15.23;11.50;;;3.80;99.90;;;;;;5064235;28;20167;-78
2023/12/07 08:50:51;;;;;;;14.57;11.57;;;3.90;99.90;;;;;;5075577;28;21030;-78
2023/12/07 08:53:17;;;;;;;17.83;12.67;;;3.90;99.90;;;;;;5071859;28;20180;-78
2023/12/07 08:55:43;;;;;;;18.60;12.77;;;3.90;99.90;;;;;;5087226;28;20206;-78
2023/12/07 08:58:10;;;;;;;20.90;12.23;;;3.90;99.90;;;;;;5100985;28;20156;-79
2023/12/07 09:00:37;;;;;;;16.50;13.02;;;3.90;99.90;;;;;;5092366;28;20179;-78
2023/12/07 09:03:04;;;;;;;16.60;12.90;;;4.00;99.90;;;;;;5112092;28;20171;-78
2023/12/07 09:05:30;;;;;;;17.63;12.50;;;4.00;99.90;;;;;;5110479;28;20797;-77
2023/12/07 09:07:56;;;;;;;15.93;12.10;;;4.10;99.90;;;;;;5092005;28;20182;-77
2023/12/07 09:10:22;;;;;;;11.95;10.73;;;4.10;99.90;;;;;;5109227;28;20160;-78
2023/12/07 09:12:48;;;;;;;14.05;11.18;;;4.10;99.90;;;;;;5093762;28;20253;-79
2023/12/07 09:15:14;;;;;;;15.00;12.17;;;4.20;99.90;;;;;;5083661;28;20176;-79
2023/12/07 09:17:41;;;;;;;13.80;11.07;;;4.20;99.90;;;;;;5103711;28;20610;-80
2023/12/07 09:20:12;;;;;;;16.05;12.85;;;4.20;99.90;;;;;;5095282;28;20175;-79
2023/12/07 09:22:46;;;;;;;14.32;11.50;;;4.30;99.90;;;;;;5112612;28;20206;-79
2023/12/07 09:25:12;;;;;;;16.73;14.20;;;4.30;99.90;;;;;;5079959;28;20410;-79
2023/12/07 09:27:39;;;;;;;14.60;12.30;;;4.30;99.90;;;;;;5091592;28;20172;-79
2023/12/07 09:30:07;;;;;;;15.05;12.98;;;4.40;99.90;;;;;;5089152;28;20175;-79
2023/12/07 09:32:38;;;;;;;17.15;13.07;;;4.30;99.90;;;;;;5086673;28;20188;-79
2023/12/07 09:35:06;;;;;;;20.63;15.52;;;4.40;99.90;;;;;;5097222;28;20179;-79
2023/12/07 09:37:35;;;;;;;17.55;13.90;;;4.40;99.90;;;;;;5088202;28;20176;-79
2023/12/07 09:40:04;;;;;;;16.75;12.35;;;4.40;99.90;;;;;;5073555;28;20576;-78
2023/12/07 09:42:30;;;;;;;14.73;11.10;;;4.50;99.90;;;;;;5064629;28;20299;-78
2023/12/07 09:44:55;;;;;;;19.47;14.20;;;4.60;99.90;;;;;;5085333;28;20246;-78
2023/12/07 09:47:21;;;;;;;20.30;13.50;;;4.60;99.90;;;;;;5064714;28;20271;-78
2023/12/07 09:49:47;;;;;;;17.80;12.50;;;4.70;99.90;;;;;;5066521;28;20187;-79
2023/12/07 09:52:15;;;;;;;14.90;11.57;;;4.70;99.90;;;;;;5092298;28;20619;-77
2023/12/07 09:54:42;;;;;;;20.75;13.23;;;4.70;99.90;;;;;;5109052;28;20645;-77
2023/12/07 09:57:09;;;;;;;13.82;11.60;;;4.80;99.90;;;;;;5078841;28;20200;-77
2023/12/07 09:59:39;;;;;;;17.73;12.55;;;4.80;99.90;;;;;;5097068;28;20262;-78
2023/12/07 10:02:06;;;;;;;30.42;12.88;;;4.80;99.90;;;;;;5073709;28;20278;-78
2023/12/07 10:04:31;;;;;;;14.52;13.00;;;4.80;99.90;;;;;;5070488;28;20159;-77
2023/12/07 10:06:57;;;;;;;15.10;12.53;;;4.80;99.90;;;;;;5087823;28;20684;-77
2023/12/07 10:09:23;;;;;;;14.37;10.83;;;4.80;99.90;;;;;;5116292;28;20169;-78
2023/12/07 10:11:50;;;;;;;15.63;12.38;;;4.80;99.90;;;;;;5096298;28;20198;-77
2023/12/07 10:14:15;;;;;;;17.52;12.25;;;4.80;99.90;;;;;;5112217;28;20203;-78
2023/12/07 10:16:57;;;;;;;16.70;14.53;;;4.80;99.90;;;;;;5094813;28;20182;-78
2023/12/07 10:19:25;;;;;;;16.50;12.95;;;4.70;99.90;;;;;;5114918;28;20213;-78
2023/12/07 10:21:54;;;;;;;20.42;13.85;;;4.80;99.90;;;;;;5062465;28;20191;-78
2023/12/07 10:24:23;;;;;;;18.42;13.20;;;4.80;99.90;;;;;;5094995;28;20180;-79
2023/12/07 10:26:50;;;;;;;18.38;12.73;;;4.80;99.90;;;;;;5077156;28;20194;-77
2023/12/07 10:29:20;;;;;;;15.43;12.75;;;4.90;99.90;;;;;;5094938;28;20151;-78
2023/12/07 10:31:47;;;;;;;15.07;12.70;;;5.00;99.90;;;;;;5114157;28;20188;-78
2023/12/07 10:34:13;;;;;;;18.75;12.60;;;5.10;99.90;;;;;;5094520;28;20180;-77
2023/12/07 10:36:38;;;;;;;15.35;12.25;;;5.10;99.90;;;;;;5093364;28;20261;-77
2023/12/07 10:39:07;;;;;;;14.70;11.53;;;5.10;99.90;;;;;;5093290;28;20164;-78
2023/12/07 10:41:35;;;;;;;17.48;12.43;;;5.10;99.90;;;;;;5113036;28;20187;-78
2023/12/07 10:44:01;;;;;;;15.30;12.68;;;5.20;99.90;;;;;;5094114;28;20164;-78
2023/12/07 10:46:27;;;;;;;20.48;13.10;;;5.20;99.90;;;;;;5112647;28;20179;-78
2023/12/07 10:49:09;;;;;;;14.18;11.63;;;5.40;99.90;;;;;;5094666;28;20168;-78
2023/12/07 10:51:56;;;;;;;13.32;11.93;;;5.50;99.90;;;;;;5085048;28;20545;-78
2023/12/07 10:54:23;;;;;;;15.23;12.35;;;5.60;99.90;;;;;;5111144;28;20184;-78
2023/12/07 10:56:50;;;;;;;16.67;11.40;;;5.70;99.90;;;;;;5104222;28;20227;-78
2023/12/07 10:59:17;;;;;;;15.85;11.88;;;5.80;99.90;;;;;;5086833;28;20172;-78
2023/12/07 11:01:43;;;;;;;13.70;10.13;;;5.90;99.90;;;;;;5105978;28;20202;-78
2023/12/07 11:04:13;;;;;;;11.77;10.15;;;6.00;99.90;;;;;;5087140;28;20243;-79
2023/12/07 11:06:40;;;;;;;11.13;9.52;;;6.00;99.90;;;;;;5090547;28;20190;-78
2023/12/07 11:09:10;;;;;;;14.70;11.50;;;6.10;99.90;;;;;;5094654;28;20183;-79
2023/12/07 11:11:54;;;;;;;12.50;11.07;;;6.00;99.90;;;;;;5109515;28;20195;-78
2023/12/07 11:14:20;;;;;;;15.07;10.90;;;5.90;99.90;;;;;;5111431;28;20246;-78
2023/12/07 11:16:47;;;;;;;11.25;9.00;;;5.80;99.90;;;;;;5111773;28;20234;-79
2023/12/07 11:19:36;;;;;;;13.57;10.70;;;5.70;99.90;;;;;;5057322;28;20202;-79
2023/12/07 11:22:07;;;;;;;12.45;10.82;;;5.70;99.90;;;;;;5102450;28;20235;-78
2023/12/07 11:24:33;;;;;;;11.80;10.23;;;5.60;99.90;;;;;;5105980;28;20168;-78
2023/12/07 11:26:59;;;;;;;11.43;10.23;;;5.50;99.90;;;;;;5106876;28;20239;-78
2023/12/07 11:29:27;;;;;;;15.82;10.68;;;5.40;99.90;;;;;;5105561;28;20172;-78
2023/12/07 11:32:03;;;;;;;20.85;11.40;;;5.30;99.90;;;;;;5091417;28;20196;-78
2023/12/07 11:34:40;;;;;;;10.45;8.77;;;5.30;99.90;;;;;;5072924;28;20180;-76
2023/12/07 11:37:07;;;;;;;11.02;8.70;;;5.30;99.90;;;;;;5077194;28;20275;-76
2023/12/07 11:39:38;;;;;;;14.30;11.45;;;5.40;99.90;;;;;;5066795;28;20183;-76
2023/12/07 11:42:12;;;;;;;13.95;11.20;;;5.50;99.90;;;;;;5096825;28;20270;-77
2023/12/07 11:44:39;;;;;;;14.27;10.18;;;5.50;99.90;;;;;;5080833;28;20168;-76
2023/12/07 11:47:06;;;;;;;13.65;10.95;;;5.60;99.90;;;;;;5063324;28;20176;-77
2023/12/07 11:49:33;;;;;;;12.70;11.27;;;5.70;99.90;;;;;;5069667;28;20180;-77
2023/12/07 11:51:59;;;;;;;11.27;9.82;;;5.70;99.90;;;;;;5069405;28;20208;-77
2023/12/07 11:54:26;;;;;;;13.95;10.00;;;5.80;99.90;;;;;;5067734;28;20169;-77
2023/12/07 11:57:01;;;;;;;13.25;10.75;;;5.80;99.90;;;;;;5085313;28;20549;-76
2023/12/07 11:59:27;;;;;;;13.27;11.15;;;5.90;99.90;;;;;;5085286;28;20175;-77
2023/12/07 12:01:53;;;;;;;12.80;11.27;;;5.90;99.90;;;;;;5066180;28;20191;-77
2023/12/07 12:04:18;;;;;;;13.53;11.40;;;5.80;99.90;;;;;;5080208;28;20260;-77
2023/12/07 12:06:45;;;;;;;16.43;11.27;;;5.90;99.90;;;;;;5103651;28;20167;-77
2023/12/07 12:09:17;;;;;;;14.93;10.45;;;5.80;99.90;;;;;;5104785;28;20206;-77
2023/12/07 12:11:49;;;;;;;12.15;10.07;;;5.80;99.90;;;;;;5092288;28;20221;-76
2023/12/07 12:14:16;;;;;;;13.90;9.80;;;5.80;99.90;;;;;;5086899;28;20348;-76
2023/12/07 12:16:46;;;;;;;11.23;9.73;;;5.80;99.90;;;;;;5104295;28;20191;-77
2023/12/07 12:19:12;;;;;;;13.05;10.18;;;5.80;99.90;;;;;;5089072;28;20160;-76
2023/12/07 12:21:47;;;;;;;12.13;9.47;;;5.80;99.90;;;;;;5088010;28;20210;-78
2023/12/07 12:24:13;;;;;;;11.38;8.40;;;5.80;99.90;;;;;;5091024;28;20577;-77
2023/12/07 12:26:43;;;;;;;14.77;10.43;;;5.80;99.90;;;;;;5096022;28;20178;-78
2023/12/07 12:29:09;;;;;;;11.90;10.15;;;5.80;99.90;;;;;;5114848;28;20542;-78
2023/12/07 12:31:35;;;;;;;15.50;9.63;;;5.80;99.90;;;;;;5091452;28;20215;-77
2023/12/07 12:34:02;;;;;;;12.60;9.65;;;5.80;99.90;;;;;;5106227;28;20209;-78
2023/12/07 12:36:29;;;;;;;11.20;8.48;;;5.80;99.90;;;;;;5090432;28;20298;-78
2023/12/07 12:38:55;;;;;;;13.25;10.15;;;5.80;99.90;;;;;;5072711;28;20167;-77
2023/12/07 12:41:24;;;;;;;11.43;9.13;;;5.80;99.90;;;;;;5089617;28;20187;-77
2023/12/07 12:43:51;;;;;;;10.25;8.43;;;5.80;99.90;;;;;;5064967;28;20187;-78